createdAt,value
2023-04-07T00:00:06.792Z,12.15
2023-04-07T00:01:10.072Z,15.18
2023-04-07T00:02:12.553Z,17.52
2023-04-07T00:03:16.051Z,15.00
2023-04-07T00:04:18.684Z,18.58
2023-04-07T00:05:22.080Z,13.80
2023-04-07T00:06:24.417Z,20.40
2023-04-07T00:07:27.782Z,16.65
2023-04-07T00:08:30.377Z,20.55
2023-04-07T00:09:33.648Z,22.20
2023-04-07T00:10:37.360Z,22.85
2023-04-07T00:11:40.690Z,15.10
2023-04-07T00:12:43.071Z,30.00
2023-04-07T00:13:46.532Z,20.88
2023-04-07T00:14:48.837Z,23.45
2023-04-07T00:15:52.192Z,15.40
2023-04-07T00:16:54.519Z,24.17
2023-04-07T00:17:57.856Z,22.08
2023-04-07T00:19:00.191Z,18.63
2023-04-07T00:20:03.455Z,37.58
2023-04-07T00:21:06.121Z,13.57
2023-04-07T00:22:09.392Z,18.80
2023-04-07T00:23:11.714Z,19.50
2023-04-07T00:24:18.510Z,16.75
2023-04-07T00:25:29.623Z,18.25
2023-04-07T00:26:34.256Z,19.30
2023-04-07T00:27:36.574Z,23.10
2023-04-07T00:28:39.910Z,30.77
2023-04-07T00:29:43.776Z,21.77
2023-04-07T00:30:47.030Z,25.20
2023-04-07T00:31:49.347Z,29.25
2023-04-07T00:32:52.725Z,20.98
2023-04-07T00:33:56.036Z,29.00
2023-04-07T00:34:59.501Z,29.55
2023-04-07T00:36:05.008Z,20.90
2023-04-07T00:37:08.311Z,32.58
2023-04-07T00:38:10.613Z,41.28
2023-04-07T00:39:13.901Z,29.05
2023-04-07T00:40:16.400Z,18.25
2023-04-07T00:41:19.686Z,32.35
2023-04-07T00:42:23.381Z,25.92
2023-04-07T00:43:26.825Z,24.70
2023-04-07T00:44:29.137Z,21.02
2023-04-07T00:45:32.530Z,21.48
2023-04-07T00:46:34.902Z,19.67
2023-04-07T00:47:38.361Z,29.77
2023-04-07T00:48:40.718Z,18.80
2023-04-07T00:49:44.117Z,21.05
2023-04-07T00:50:46.705Z,22.40
2023-04-07T00:51:50.048Z,21.25
2023-04-07T00:52:52.849Z,28.90
2023-04-07T00:53:56.787Z,19.05
2023-04-07T00:55:00.315Z,28.30
2023-04-07T00:56:03.656Z,18.83
2023-04-07T00:57:05.976Z,13.85
2023-04-07T00:58:11.072Z,21.67
2023-04-07T00:59:13.385Z,24.80
2023-04-07T01:00:16.955Z,21.77
2023-04-07T01:01:23.115Z,24.83
2023-04-07T01:02:30.683Z,18.98
2023-04-07T01:03:36.633Z,16.27
2023-04-07T01:04:45.585Z,18.55
2023-04-07T01:05:51.421Z,17.58
2023-04-07T01:06:57.146Z,20.30
2023-04-07T01:08:01.795Z,22.00
2023-04-07T01:09:08.956Z,23.77
2023-04-07T01:10:13.476Z,15.23
2023-04-07T01:11:19.408Z,27.70
2023-04-07T01:12:26.286Z,25.23
2023-04-07T01:13:33.543Z,23.88
2023-04-07T01:14:41.198Z,19.27
2023-04-07T01:15:46.624Z,23.25
2023-04-07T01:16:51.529Z,20.02
2023-04-07T01:18:01.545Z,20.40
2023-04-07T01:19:07.923Z,18.20
2023-04-07T01:20:14.408Z,13.23
2023-04-07T01:21:18.048Z,17.75
2023-04-07T01:22:25.579Z,19.80
2023-04-07T01:23:29.989Z,20.42
2023-04-07T01:24:51.338Z,19.73
2023-04-07T01:26:04.997Z,19.10
2023-04-07T01:27:16.120Z,14.95
2023-04-07T01:28:31.444Z,17.27
2023-04-07T01:29:40.533Z,18.30
2023-04-07T01:30:44.211Z,20.95
2023-04-07T01:31:48.727Z,14.90
2023-04-07T01:32:53.813Z,21.60
2023-04-07T01:33:57.791Z,17.30
2023-04-07T01:35:00.938Z,17.25
2023-04-07T01:36:04.818Z,20.48
2023-04-07T01:37:07.566Z,24.48
2023-04-07T01:38:11.259Z,19.83
2023-04-07T01:39:14.066Z,20.88
2023-04-07T01:40:18.275Z,20.02
2023-04-07T01:41:21.005Z,25.73
2023-04-07T01:42:24.502Z,26.77
2023-04-07T01:43:28.443Z,21.02
2023-04-07T01:44:32.184Z,20.70
2023-04-07T01:45:36.989Z,17.95
2023-04-07T01:46:40.321Z,22.83
2023-04-07T01:47:42.842Z,21.00
2023-04-07T01:48:46.791Z,17.83
2023-04-07T01:49:49.530Z,14.75
2023-04-07T01:50:52.960Z,23.85
2023-04-07T01:51:55.531Z,20.90
2023-04-07T01:52:59.184Z,15.20
2023-04-07T01:54:02.754Z,13.82
2023-04-07T01:55:06.335Z,19.73
2023-04-07T01:56:08.829Z,28.85
2023-04-07T01:57:12.095Z,25.25
2023-04-07T01:58:14.414Z,20.60
2023-04-07T01:59:17.736Z,26.52
2023-04-07T02:00:20.100Z,21.10
2023-04-07T02:01:24.799Z,23.83
2023-04-07T02:02:27.570Z,20.48
2023-04-07T02:03:33.212Z,21.30
2023-04-07T02:04:39.080Z,27.17
2023-04-07T02:05:42.504Z,19.65
2023-04-07T02:06:49.103Z,27.75
2023-04-07T02:07:55.526Z,21.55
2023-04-07T02:08:59.820Z,20.10
2023-04-07T02:10:04.321Z,21.33
2023-04-07T02:11:08.205Z,24.98
2023-04-07T02:12:13.735Z,18.85
2023-04-07T02:13:16.929Z,23.45
2023-04-07T02:14:22.665Z,22.70
2023-04-07T02:15:25.992Z,13.80
2023-04-07T02:16:31.852Z,20.25
2023-04-07T02:17:35.577Z,18.90
2023-04-07T02:18:39.639Z,15.70
2023-04-07T02:19:46.029Z,17.15
2023-04-07T02:20:48.985Z,19.48
2023-04-07T02:21:53.433Z,19.75
2023-04-07T02:22:56.032Z,17.48
2023-04-07T02:24:02.336Z,19.60
2023-04-07T02:25:18.353Z,19.60
2023-04-07T02:26:21.629Z,16.90
2023-04-07T02:27:23.906Z,17.27
2023-04-07T02:28:27.178Z,20.83
2023-04-07T02:29:29.514Z,27.35
2023-04-07T02:30:33.974Z,18.27
2023-04-07T02:31:37.631Z,22.50
2023-04-07T02:32:41.419Z,20.83
2023-04-07T02:33:43.777Z,19.00
2023-04-07T02:34:48.092Z,19.90
2023-04-07T02:35:50.594Z,23.73
2023-04-07T02:36:54.099Z,25.42
2023-04-07T02:37:56.467Z,19.50
2023-04-07T02:39:00.456Z,20.05
2023-04-07T02:40:02.877Z,30.85
2023-04-07T02:41:06.661Z,32.13
2023-04-07T02:42:08.945Z,23.38
2023-04-07T02:43:12.204Z,31.00
2023-04-07T02:44:14.565Z,35.95
2023-04-07T02:45:17.854Z,34.65
2023-04-07T02:46:20.279Z,29.80
2023-04-07T02:47:25.045Z,30.33
2023-04-07T02:48:27.338Z,25.65
2023-04-07T02:49:30.617Z,25.27
2023-04-07T02:50:32.936Z,26.30
2023-04-07T02:51:36.325Z,21.90
2023-04-07T02:52:38.722Z,21.55
2023-04-07T02:53:42.023Z,25.92
2023-04-07T02:54:44.355Z,18.60
2023-04-07T02:55:47.931Z,19.73
2023-04-07T02:56:50.261Z,28.67
2023-04-07T02:57:53.568Z,24.02
2023-04-07T02:58:56.023Z,25.08
2023-04-07T02:59:59.295Z,37.85
2023-04-07T03:01:01.581Z,27.77
2023-04-07T03:02:05.035Z,25.88
2023-04-07T03:03:09.183Z,24.63
2023-04-07T03:04:12.722Z,20.60
2023-04-07T03:05:15.678Z,24.17
2023-04-07T03:06:18.991Z,26.67
2023-04-07T03:07:21.392Z,25.02
2023-04-07T03:08:24.663Z,21.65
2023-04-07T03:09:27.395Z,23.33
2023-04-07T03:10:31.077Z,19.98
2023-04-07T03:11:33.360Z,22.00
2023-04-07T03:12:36.663Z,27.35
2023-04-07T03:13:38.969Z,28.27
2023-04-07T03:14:42.299Z,28.30
2023-04-07T03:15:44.792Z,28.08
2023-04-07T03:16:48.130Z,26.80
2023-04-07T03:17:50.652Z,25.48
2023-04-07T03:18:55.379Z,28.25
2023-04-07T03:19:57.705Z,28.67
2023-04-07T03:21:01.021Z,23.60
2023-04-07T03:22:03.372Z,28.92
2023-04-07T03:23:06.825Z,28.23
2023-04-07T03:24:09.242Z,33.25
2023-04-07T03:25:12.577Z,28.15
2023-04-07T03:26:14.946Z,32.63
2023-04-07T03:27:18.468Z,30.40
2023-04-07T03:28:21.228Z,36.15
2023-04-07T03:29:24.551Z,30.27
2023-04-07T03:30:27.509Z,29.58
2023-04-07T03:31:31.143Z,25.63
2023-04-07T03:32:33.517Z,26.17
2023-04-07T03:33:37.159Z,31.83
2023-04-07T03:34:40.842Z,28.92
2023-04-07T03:35:44.366Z,30.30
2023-04-07T03:36:47.638Z,39.03
2023-04-07T03:37:49.912Z,33.10
2023-04-07T03:38:53.236Z,31.15
2023-04-07T03:39:55.588Z,36.28
2023-04-07T03:40:58.875Z,31.60
2023-04-07T03:42:01.183Z,27.38
2023-04-07T03:43:04.456Z,36.55
2023-04-07T03:44:07.076Z,32.45
2023-04-07T03:45:10.961Z,36.88
2023-04-07T03:46:13.323Z,26.55
2023-04-07T03:47:16.607Z,36.38
2023-04-07T03:48:18.920Z,27.95
2023-04-07T03:49:21.307Z,34.58
2023-04-07T03:50:26.112Z,29.63
2023-04-07T03:51:28.575Z,31.40
2023-04-07T03:52:32.014Z,31.05
2023-04-07T03:53:34.349Z,27.95
2023-04-07T03:54:37.705Z,31.83
2023-04-07T03:55:40.092Z,29.42
2023-04-07T03:56:43.411Z,24.60
2023-04-07T03:57:45.947Z,28.92
2023-04-07T03:58:49.348Z,32.45
2023-04-07T03:59:51.724Z,26.25
2023-04-07T04:00:55.035Z,30.98
2023-04-07T04:01:57.415Z,28.75
2023-04-07T04:03:00.865Z,30.42
2023-04-07T04:04:03.495Z,29.42
2023-04-07T04:05:07.054Z,27.77
2023-04-07T04:06:10.698Z,26.33
2023-04-07T04:07:13.970Z,21.50
2023-04-07T04:08:16.264Z,30.52
2023-04-07T04:09:20.859Z,27.42
2023-04-07T04:10:23.314Z,28.10
2023-04-07T04:11:27.344Z,34.33
2023-04-07T04:12:29.641Z,29.90
2023-04-07T04:13:33.287Z,24.45
2023-04-07T04:14:35.608Z,36.40
2023-04-07T04:15:38.955Z,31.63
2023-04-07T04:16:41.315Z,24.20
2023-04-07T04:17:44.619Z,30.42
2023-04-07T04:18:46.974Z,39.50
2023-04-07T04:19:51.203Z,32.20
2023-04-07T04:20:53.602Z,27.88
2023-04-07T04:21:58.298Z,29.40
2023-04-07T04:23:00.583Z,37.53
2023-04-07T04:24:04.471Z,28.13
2023-04-07T04:25:07.196Z,27.45
2023-04-07T04:26:10.554Z,31.70
2023-04-07T04:27:12.866Z,30.33
2023-04-07T04:28:16.147Z,33.95
2023-04-07T04:29:18.488Z,32.53
2023-04-07T04:30:21.789Z,38.00
2023-04-07T04:31:24.154Z,40.83
2023-04-07T04:32:27.700Z,25.15
2023-04-07T04:33:30.694Z,32.42
2023-04-07T04:34:34.363Z,38.13
2023-04-07T04:35:36.633Z,32.00
2023-04-07T04:36:40.635Z,23.45
2023-04-07T04:37:44.350Z,26.48
2023-04-07T04:38:47.605Z,53.70
2023-04-07T04:39:49.915Z,26.50
2023-04-07T04:40:53.193Z,32.70
2023-04-07T04:41:56.800Z,32.97
2023-04-07T04:43:00.117Z,41.67
2023-04-07T04:44:03.432Z,28.67
2023-04-07T04:45:06.694Z,23.17
2023-04-07T04:46:09.997Z,22.17
2023-04-07T04:47:12.333Z,22.15
2023-04-07T04:48:15.656Z,21.70
2023-04-07T04:49:19.076Z,19.58
2023-04-07T04:50:22.409Z,29.75
2023-04-07T04:51:24.871Z,25.20
2023-04-07T04:52:28.855Z,20.73
2023-04-07T04:53:32.673Z,22.15
2023-04-07T04:54:36.080Z,27.88
2023-04-07T04:55:40.821Z,22.45
2023-04-07T04:56:44.130Z,23.35
2023-04-07T04:57:46.415Z,25.30
2023-04-07T04:58:49.719Z,26.17
2023-04-07T04:59:52.114Z,21.02
2023-04-07T05:00:58.264Z,25.80
2023-04-07T05:02:00.810Z,22.63
2023-04-07T05:03:04.457Z,21.40
2023-04-07T05:04:07.134Z,29.02
2023-04-07T05:05:10.854Z,20.02
2023-04-07T05:06:13.147Z,22.15
2023-04-07T05:07:16.431Z,24.27
2023-04-07T05:08:18.812Z,29.33
2023-04-07T05:09:23.487Z,28.95
2023-04-07T05:10:26.060Z,22.90
2023-04-07T05:11:29.390Z,21.75
2023-04-07T05:12:31.710Z,26.05
2023-04-07T05:13:35.024Z,21.65
2023-04-07T05:14:37.293Z,23.50
2023-04-07T05:15:41.543Z,28.55
2023-04-07T05:16:44.181Z,20.65
2023-04-07T05:17:50.465Z,23.73
2023-04-07T05:18:52.902Z,17.48
2023-04-07T05:19:56.177Z,26.08
2023-04-07T05:20:58.602Z,18.83
2023-04-07T05:22:01.940Z,24.70
2023-04-07T05:23:04.276Z,18.13
2023-04-07T05:24:09.241Z,24.67
2023-04-07T05:25:13.361Z,25.30
2023-04-07T05:26:16.628Z,21.92
2023-04-07T05:27:18.936Z,20.00
2023-04-07T05:28:22.187Z,23.13
2023-04-07T05:29:24.512Z,19.48
2023-04-07T05:30:27.795Z,25.60
2023-04-07T05:31:30.335Z,28.13
2023-04-07T05:32:33.743Z,25.45
2023-04-07T05:33:36.100Z,25.88
2023-04-07T05:34:40.110Z,24.30
2023-04-07T05:35:42.420Z,20.30
2023-04-07T05:36:45.978Z,30.38
2023-04-07T05:37:48.323Z,23.42
2023-04-07T05:38:51.640Z,23.48
2023-04-07T05:39:53.948Z,21.58
2023-04-07T05:40:58.559Z,28.70
2023-04-07T05:42:02.198Z,28.77
2023-04-07T05:43:05.746Z,28.20
2023-04-07T05:44:08.039Z,30.65
2023-04-07T05:45:12.210Z,24.85
2023-04-07T05:46:15.661Z,32.25
2023-04-07T05:47:18.047Z,23.60
2023-04-07T05:48:21.576Z,29.85
2023-04-07T05:49:23.892Z,34.70
2023-04-07T05:50:27.173Z,28.52
2023-04-07T05:51:29.473Z,25.25
2023-04-07T05:52:32.770Z,32.25
2023-04-07T05:53:35.134Z,29.98
2023-04-07T05:54:39.405Z,18.25
2023-04-07T05:55:43.094Z,28.63
2023-04-07T05:56:47.750Z,26.63
2023-04-07T05:57:50.073Z,23.80
2023-04-07T05:58:53.735Z,17.50
2023-04-07T05:59:56.151Z,28.45
2023-04-07T06:00:59.430Z,35.85
2023-04-07T06:02:02.010Z,36.80
2023-04-07T06:03:05.457Z,39.33
2023-04-07T06:04:07.850Z,33.15
2023-04-07T06:05:11.197Z,29.67
2023-04-07T06:06:13.499Z,38.88
2023-04-07T06:07:17.575Z,36.88
2023-04-07T06:08:20.025Z,31.25
2023-04-07T06:09:23.415Z,31.65
2023-04-07T06:10:26.710Z,36.10
2023-04-07T06:11:30.021Z,23.90
2023-04-07T06:12:33.674Z,35.35
2023-04-07T06:13:36.952Z,35.88
2023-04-07T06:14:39.356Z,29.85
2023-04-07T06:15:42.702Z,33.15
2023-04-07T06:16:45.722Z,28.42
2023-04-07T06:17:49.155Z,36.40
2023-04-07T06:18:51.574Z,29.90
2023-04-07T06:19:54.908Z,39.60
2023-04-07T06:20:57.235Z,23.38
2023-04-07T06:22:00.604Z,32.08
2023-04-07T06:23:03.897Z,30.42
2023-04-07T06:24:07.640Z,34.17
2023-04-07T06:25:10.463Z,25.30
2023-04-07T06:26:14.152Z,26.92
2023-04-07T06:27:18.481Z,26.52
2023-04-07T06:28:23.189Z,27.00
2023-04-07T06:29:26.462Z,31.35
2023-04-07T06:30:29.824Z,35.30
2023-04-07T06:31:33.160Z,32.03
2023-04-07T06:32:35.495Z,38.47
2023-04-07T06:33:38.795Z,37.33
2023-04-07T06:34:41.086Z,46.58
2023-04-07T06:35:44.504Z,40.33
2023-04-07T06:36:46.896Z,48.10
2023-04-07T06:37:50.258Z,33.17
2023-04-07T06:38:52.592Z,32.53
2023-04-07T06:39:55.898Z,36.60
2023-04-07T06:40:58.231Z,53.03
2023-04-07T06:42:01.757Z,32.47
2023-04-07T06:43:04.211Z,21.17
2023-04-07T06:44:09.596Z,35.28
2023-04-07T06:45:12.212Z,23.75
2023-04-07T06:46:15.512Z,39.45
2023-04-07T06:47:18.893Z,49.35
2023-04-07T06:48:21.222Z,37.38
2023-04-07T06:49:24.536Z,53.58
2023-04-07T06:50:26.788Z,51.55
2023-04-07T06:51:30.100Z,46.53
2023-04-07T06:52:32.453Z,51.60
2023-04-07T06:53:35.752Z,41.28
2023-04-07T06:54:39.031Z,35.95
2023-04-07T06:55:41.692Z,56.10
2023-04-07T06:56:45.360Z,42.08
2023-04-07T06:57:47.644Z,47.85
2023-04-07T06:58:51.089Z,47.47
2023-04-07T06:59:54.733Z,46.70
2023-04-07T07:00:58.050Z,34.85
2023-04-07T07:02:01.397Z,45.35
2023-04-07T07:03:03.974Z,33.03
2023-04-07T07:04:07.401Z,44.97
2023-04-07T07:05:11.471Z,37.50
2023-04-07T07:06:13.766Z,31.02
2023-04-07T07:07:17.035Z,57.35
2023-04-07T07:08:19.336Z,43.78
2023-04-07T07:09:22.652Z,47.33
2023-04-07T07:10:24.964Z,46.78
2023-04-07T07:11:28.292Z,60.80
2023-04-07T07:12:30.619Z,67.22
2023-04-07T07:13:33.917Z,50.90
2023-04-07T07:14:36.460Z,39.20
2023-04-07T07:15:41.252Z,36.38
2023-04-07T07:16:43.646Z,26.23
2023-04-07T07:17:46.918Z,49.70
2023-04-07T07:18:49.219Z,46.83
2023-04-07T07:19:52.518Z,54.60
2023-04-07T07:20:54.811Z,55.75
2023-04-07T07:21:58.109Z,48.78
2023-04-07T07:23:01.577Z,43.25
2023-04-07T07:24:04.927Z,69.60
2023-04-07T07:25:07.569Z,51.28
2023-04-07T07:26:10.897Z,69.60
2023-04-07T07:27:13.173Z,41.65
2023-04-07T07:28:16.686Z,48.35
2023-04-07T07:29:18.960Z,41.90
2023-04-07T07:30:22.557Z,59.45
2023-04-07T07:31:27.266Z,38.28
2023-04-07T07:32:29.637Z,45.40
2023-04-07T07:33:32.933Z,57.20
2023-04-07T07:34:35.273Z,45.58
2023-04-07T07:35:38.937Z,41.30
2023-04-07T07:36:41.238Z,30.85
2023-04-07T07:37:45.000Z,35.42
2023-04-07T07:38:51.295Z,38.63
2023-04-07T07:39:53.588Z,41.03
2023-04-07T07:40:56.853Z,38.65
2023-04-07T07:42:01.549Z,40.00
2023-04-07T07:43:03.896Z,37.97
2023-04-07T07:44:07.212Z,34.17
2023-04-07T07:45:09.936Z,42.15
2023-04-07T07:46:13.243Z,28.02
2023-04-07T07:47:16.909Z,20.05
2023-04-07T07:48:20.328Z,25.23
2023-04-07T07:49:23.622Z,13.27
2023-04-07T07:50:25.954Z,29.17
2023-04-07T07:51:29.254Z,30.60
2023-04-07T07:52:31.835Z,34.55
2023-04-07T07:53:35.083Z,30.48
2023-04-07T07:54:37.370Z,22.85
2023-04-07T07:55:40.764Z,38.10
2023-04-07T07:56:43.049Z,39.63
2023-04-07T07:57:46.480Z,26.02
2023-04-07T07:58:49.741Z,32.55
2023-04-07T07:59:53.421Z,48.38
2023-04-07T08:00:55.878Z,44.08
2023-04-07T08:01:59.294Z,26.48
2023-04-07T08:03:04.022Z,38.35
2023-04-07T08:04:07.538Z,31.38
2023-04-07T08:05:10.166Z,33.38
2023-04-07T08:06:13.437Z,42.33
2023-04-07T08:07:16.709Z,45.95
2023-04-07T08:08:19.140Z,45.15
2023-04-07T08:09:22.631Z,22.52
2023-04-07T08:10:25.402Z,22.90
2023-04-07T08:11:28.690Z,30.30
2023-04-07T08:12:31.975Z,27.65
2023-04-07T08:13:34.301Z,27.95
2023-04-07T08:14:37.579Z,29.23
2023-04-07T08:15:41.108Z,32.38
2023-04-07T08:16:43.710Z,27.48
2023-04-07T08:17:47.033Z,19.73
2023-04-07T08:18:51.808Z,20.35
2023-04-07T08:19:54.119Z,18.90
2023-04-07T08:20:57.633Z,26.45
2023-04-07T08:21:59.971Z,21.65
2023-04-07T08:23:03.506Z,28.60
2023-04-07T08:24:06.904Z,27.20
2023-04-07T08:25:10.706Z,21.70
2023-04-07T08:26:14.032Z,31.15
2023-04-07T08:27:16.323Z,22.98
2023-04-07T08:28:19.610Z,24.65
2023-04-07T08:29:21.905Z,31.55
2023-04-07T08:30:25.371Z,31.00
2023-04-07T08:31:27.716Z,26.52
2023-04-07T08:32:36.614Z,21.30
2023-04-07T08:33:39.945Z,23.80
2023-04-07T08:34:43.590Z,24.00
2023-04-07T08:35:47.563Z,17.52
2023-04-07T08:36:51.014Z,31.65
2023-04-07T08:37:54.287Z,22.17
2023-04-07T08:38:56.922Z,19.83
2023-04-07T08:40:00.218Z,13.05
2023-04-07T08:41:06.024Z,15.77
2023-04-07T08:42:09.566Z,14.90
2023-04-07T08:43:14.689Z,12.90
2023-04-07T08:44:18.112Z,17.20
2023-04-07T08:45:21.446Z,19.40
2023-04-07T08:46:24.991Z,21.23
2023-04-07T08:47:29.355Z,19.10
2023-04-07T08:48:34.128Z,20.45
2023-04-07T08:49:37.594Z,16.35
2023-04-07T08:50:44.031Z,21.00
2023-04-07T08:51:48.433Z,12.80
2023-04-07T08:52:51.444Z,18.23
2023-04-07T08:53:55.755Z,18.45
2023-04-07T08:54:58.742Z,16.15
2023-04-07T08:56:03.123Z,14.38
2023-04-07T08:57:06.037Z,12.80
2023-04-07T08:58:12.467Z,12.93
2023-04-07T08:59:18.555Z,17.25
2023-04-07T09:00:22.147Z,15.52
2023-04-07T09:01:26.963Z,16.25
2023-04-07T09:02:29.886Z,13.82
2023-04-07T09:03:34.130Z,16.45
2023-04-07T09:04:37.461Z,13.93
2023-04-07T09:05:41.263Z,13.40
2023-04-07T09:06:45.459Z,13.13
2023-04-07T09:07:47.853Z,14.13
2023-04-07T09:08:51.118Z,16.27
2023-04-07T09:09:54.375Z,18.27
2023-04-07T09:10:58.032Z,16.17
2023-04-07T09:12:01.311Z,13.80
2023-04-07T09:13:03.601Z,15.75
2023-04-07T09:14:07.008Z,14.57
2023-04-07T09:15:09.552Z,15.93
2023-04-07T09:16:14.150Z,14.73
2023-04-07T09:17:17.480Z,16.60
2023-04-07T09:18:21.008Z,13.73
2023-04-07T09:19:26.547Z,16.48
2023-04-07T09:20:29.861Z,14.43
2023-04-07T09:21:47.037Z,18.50
2023-04-07T09:22:51.742Z,15.80
2023-04-07T09:23:54.153Z,13.50
2023-04-07T09:25:10.892Z,15.30
2023-04-07T09:26:22.101Z,16.10
2023-04-07T09:27:24.413Z,15.27
2023-04-07T09:28:27.902Z,13.80
2023-04-07T09:29:30.202Z,13.15
2023-04-07T09:30:34.561Z,15.75
2023-04-07T09:31:45.322Z,18.05
2023-04-07T09:32:48.714Z,17.80
2023-04-07T09:33:52.820Z,24.13
2023-04-07T09:34:59.450Z,34.17
2023-04-07T09:36:02.729Z,39.40
2023-04-07T09:37:07.193Z,20.27
2023-04-07T09:38:11.999Z,18.30
2023-04-07T09:39:14.278Z,17.60
2023-04-07T09:40:28.366Z,18.83
2023-04-07T09:41:31.665Z,30.58
2023-04-07T09:42:36.099Z,20.23
2023-04-07T09:43:40.514Z,15.73
2023-04-07T09:44:42.891Z,21.35
2023-04-07T09:45:46.810Z,15.52
2023-04-07T09:46:49.602Z,16.63
2023-04-07T09:47:53.004Z,19.00
2023-04-07T09:49:05.100Z,19.02
2023-04-07T09:50:08.112Z,17.52
2023-04-07T09:51:12.806Z,19.98
2023-04-07T09:52:17.583Z,19.17
2023-04-07T09:53:23.305Z,19.77
2023-04-07T09:54:35.933Z,20.77
2023-04-07T09:55:41.859Z,19.30
2023-04-07T09:56:45.600Z,18.00
2023-04-07T09:57:49.702Z,17.45
2023-04-07T09:58:53.287Z,17.10
2023-04-07T09:59:57.460Z,19.98
2023-04-07T10:00:59.944Z,19.75
2023-04-07T10:02:03.592Z,17.60
2023-04-07T10:03:06.423Z,19.80
2023-04-07T10:04:10.378Z,20.58
2023-04-07T10:05:12.695Z,17.08
2023-04-07T10:06:16.618Z,21.25
2023-04-07T10:07:20.105Z,20.30
2023-04-07T10:08:23.817Z,18.23
2023-04-07T10:09:28.496Z,19.52
2023-04-07T10:10:32.170Z,23.58
2023-04-07T10:11:35.484Z,17.05
2023-04-07T10:12:38.459Z,18.45
2023-04-07T10:13:42.211Z,29.70
2023-04-07T10:14:47.135Z,37.17
2023-04-07T10:15:50.955Z,29.08
2023-04-07T10:16:54.705Z,20.35
2023-04-07T10:17:58.274Z,18.08
2023-04-07T10:19:00.826Z,20.30
2023-04-07T10:20:06.455Z,21.65
2023-04-07T10:21:10.736Z,21.77
2023-04-07T10:22:14.324Z,21.60
2023-04-07T10:23:20.559Z,17.88
2023-04-07T10:24:32.096Z,19.52
2023-04-07T10:25:37.175Z,22.73
2023-04-07T10:26:41.815Z,21.42
2023-04-07T10:27:50.561Z,20.90
2023-04-07T10:28:57.257Z,24.13
2023-04-07T10:29:59.873Z,22.58
2023-04-07T10:31:03.942Z,23.23
2023-04-07T10:32:06.876Z,28.27
2023-04-07T10:33:10.551Z,17.15
2023-04-07T10:34:14.084Z,21.35
2023-04-07T10:35:17.236Z,26.20
2023-04-07T10:36:21.413Z,18.45
2023-04-07T10:37:24.313Z,24.88
2023-04-07T10:38:27.916Z,22.20
2023-04-07T10:39:32.648Z,26.25
2023-04-07T10:40:35.554Z,29.42
2023-04-07T10:41:39.474Z,24.90
2023-04-07T10:42:48.199Z,27.55
2023-04-07T10:43:51.646Z,26.85
2023-04-07T10:44:54.024Z,22.00
2023-04-07T10:45:59.545Z,16.60
2023-04-07T10:47:06.390Z,19.98
2023-04-07T10:48:13.351Z,28.23
2023-04-07T10:49:19.099Z,22.67
2023-04-07T10:50:23.748Z,22.05
2023-04-07T10:51:27.254Z,33.53
2023-04-07T10:52:29.577Z,22.83
2023-04-07T10:53:33.939Z,23.92
2023-04-07T10:54:38.601Z,28.05
2023-04-07T10:55:41.047Z,17.50
2023-04-07T10:57:02.974Z,22.27
2023-04-07T10:58:19.820Z,21.52
2023-04-07T10:59:27.543Z,27.88
2023-04-07T11:00:31.455Z,26.17
2023-04-07T11:01:34.854Z,27.85
2023-04-07T11:02:39.463Z,19.05
2023-04-07T11:03:43.779Z,27.48
2023-04-07T11:04:47.219Z,22.35
2023-04-07T11:05:50.755Z,29.70
2023-04-07T11:06:53.072Z,21.23
2023-04-07T11:07:57.877Z,20.33
2023-04-07T11:09:01.211Z,21.05
2023-04-07T11:10:15.994Z,13.05
2023-04-07T11:11:21.684Z,16.02
2023-04-07T11:12:24.154Z,14.27
2023-04-07T11:13:27.466Z,12.50
2023-04-07T11:14:31.743Z,14.15
2023-04-07T11:15:34.535Z,13.10
2023-04-07T11:16:38.959Z,17.58
2023-04-07T11:17:42.273Z,13.32
2023-04-07T11:18:46.038Z,14.40
2023-04-07T11:19:51.992Z,17.20
2023-04-07T11:20:56.387Z,14.27
2023-04-07T11:22:28.800Z,11.48
2023-04-07T11:23:39.416Z,12.23
2023-04-07T11:24:41.886Z,15.13
2023-04-07T11:25:47.252Z,13.98
2023-04-07T11:26:50.836Z,15.63
2023-04-07T11:27:53.691Z,14.02
2023-04-07T11:28:58.914Z,16.70
2023-04-07T11:30:01.349Z,12.27
2023-04-07T11:31:04.840Z,15.70
2023-04-07T11:32:08.258Z,12.20
2023-04-07T11:33:11.555Z,11.35
2023-04-07T11:34:14.879Z,12.07
2023-04-07T11:35:17.337Z,17.33
2023-04-07T11:36:28.546Z,16.48
2023-04-07T11:37:31.040Z,17.50
2023-04-07T11:38:37.633Z,16.05
2023-04-07T11:39:39.965Z,11.65
2023-04-07T11:40:43.277Z,11.77
2023-04-07T11:41:49.382Z,12.30
2023-04-07T11:42:52.415Z,11.65
2023-04-07T11:44:08.568Z,12.13
2023-04-07T11:45:17.988Z,11.20
2023-04-07T11:46:21.721Z,11.75
2023-04-07T11:47:34.269Z,14.95
2023-04-07T11:48:38.039Z,16.05
2023-04-07T11:49:46.324Z,13.30
2023-04-07T11:50:48.624Z,11.38
2023-04-07T11:51:59.296Z,12.20
2023-04-07T11:53:01.748Z,10.35
2023-04-07T11:54:05.227Z,14.00
2023-04-07T11:55:09.811Z,14.00
2023-04-07T11:56:16.890Z,12.88
2023-04-07T11:57:27.414Z,10.45
2023-04-07T11:58:29.815Z,9.85
2023-04-07T11:59:33.141Z,10.45
2023-04-07T12:00:36.414Z,10.23
2023-04-07T12:01:43.040Z,12.40
2023-04-07T12:02:45.711Z,10.38
2023-04-07T12:04:00.144Z,9.68
2023-04-07T12:05:02.743Z,11.35
2023-04-07T12:06:06.442Z,8.93
2023-04-07T12:07:10.320Z,14.63
2023-04-07T12:08:12.978Z,9.48
2023-04-07T12:09:32.397Z,8.50
2023-04-07T12:10:35.368Z,13.35
2023-04-07T12:11:39.046Z,11.65
2023-04-07T12:12:46.372Z,8.85
2023-04-07T12:13:50.138Z,8.93
2023-04-07T12:14:52.691Z,9.20
2023-04-07T12:15:56.246Z,11.00
2023-04-07T12:17:01.643Z,10.68
2023-04-07T12:18:05.149Z,12.10
2023-04-07T12:19:08.514Z,9.48
2023-04-07T12:20:11.524Z,10.98
2023-04-07T12:21:14.922Z,9.05
2023-04-07T12:22:17.274Z,8.07
2023-04-07T12:23:20.573Z,9.63
2023-04-07T12:24:24.045Z,9.50
2023-04-07T12:25:27.590Z,8.90
2023-04-07T12:26:31.212Z,13.15
2023-04-07T12:27:42.834Z,9.30
2023-04-07T12:28:48.534Z,7.88
2023-04-07T12:29:50.859Z,10.80
2023-04-07T12:30:54.320Z,8.43
2023-04-07T12:31:56.836Z,6.80
2023-04-07T12:33:00.690Z,8.85
2023-04-07T12:34:04.485Z,8.60
2023-04-07T12:35:06.929Z,8.27
2023-04-07T12:36:10.375Z,11.57
2023-04-07T12:37:12.716Z,7.35
2023-04-07T12:38:16.120Z,8.73
2023-04-07T12:39:19.460Z,8.13
2023-04-07T12:40:22.271Z,7.05
2023-04-07T12:41:26.752Z,6.97
2023-04-07T12:42:29.053Z,5.97
2023-04-07T12:43:32.428Z,9.00
2023-04-07T12:44:36.671Z,8.90
2023-04-07T12:45:40.003Z,7.57
2023-04-07T12:46:43.301Z,7.28
2023-04-07T12:47:47.393Z,7.15
2023-04-07T12:48:51.574Z,9.77
2023-04-07T12:49:53.900Z,7.82
2023-04-07T12:50:57.206Z,8.43
2023-04-07T12:52:00.030Z,8.15
2023-04-07T12:53:05.374Z,7.70
2023-04-07T12:54:08.737Z,8.43
2023-04-07T12:55:11.121Z,7.88
2023-04-07T12:56:14.417Z,6.50
2023-04-07T12:57:16.774Z,8.03
2023-04-07T12:58:20.161Z,8.10
2023-04-07T12:59:22.466Z,7.77
2023-04-07T13:00:27.119Z,9.57
2023-04-07T13:01:30.642Z,7.83
2023-04-07T13:02:33.129Z,7.50
2023-04-07T13:03:37.295Z,4.70
